首页
METAR-TAF:

METAR-TAF

机场 :

貝爾格勒尼古拉·特斯拉機場

贝尔格莱德, 塞尔维亚

纬度: 44-49N, 经度: 020-17E, 海拔: 96米

当前天气观测

该预报发布于12分钟前的19:30 UTC
风速8节,风向东南
温度 18°C
湿度 88%
气压 1006 hPa
能见度10公里或以上
散云层高于3300英尺
小雨

METAR: LYBE 051930Z 14008KT 9999 -RA SCT033 18/16 Q1006 NOSIG

时间: 21:42 (19:42 UTC)

预报

该预报发布于1小时和52分钟前的17:50 UTC
预报有效从05日的 18点(UTC)到 06日的 18点(UTC)
风速8节,风向南转南东
能见度10公里或以上
散云层高于4000英尺
短暂存在
从 06日的 16点(UTC)到 06日的 18点(UTC)
风速18节,风向南转南东
能見度: 5000
散云层高于3500英尺, 积雨云.
散云层高于4000英尺
雷暴, 雨

TAF: LYBE 051750Z 0518/0618 16008KT 9999 SCT040 TX27/0613Z TN16/0603Z TEMPO 0616/0618 16018KT 5000 TSRA SCT035CB SCT040

超过4000个机场的气象观测和天气预报(METAR&TAF报告)。

可查询的气象台以黄色和红色小点在地图上表示。

将鼠标移到小点上方,可查看气象台名称。

然后点击查看天气观测和预报。

如需切换地图:点击带黑十字的绿色按钮放大地图;点击带横线的绿色按钮缩小地图;或者点击绿色箭头查看邻近地区的地图。


METAR-TAF: